sensor_id;sensor_type;location;lat;lon;timestamp;P1;durP1;ratioP1;P2;durP2;ratioP2
29382;SDS011;16365;51.598;7.668;2022-12-24T00:03:31;22.42;;;5.35;;
29382;SDS011;16365;51.598;7.668;2022-12-24T00:06:02;21.60;;;4.77;;
29382;SDS011;16365;51.598;7.668;2022-12-24T00:08:30;18.85;;;4.00;;
29382;SDS011;16365;51.598;7.668;2022-12-24T00:10:56;14.95;;;4.25;;
29382;SDS011;16365;51.598;7.668;2022-12-24T00:13:23;18.83;;;4.70;;
29382;SDS011;16365;51.598;7.668;2022-12-24T00:15:49;18.75;;;5.03;;
29382;SDS011;16365;51.598;7.668;2022-12-24T00:18:16;22.98;;;4.75;;
29382;SDS011;16365;51.598;7.668;2022-12-24T00:20:49;23.85;;;4.72;;
29382;SDS011;16365;51.598;7.668;2022-12-24T00:23:16;29.88;;;5.22;;
29382;SDS011;16365;51.598;7.668;2022-12-24T00:25:43;22.55;;;4.95;;
29382;SDS011;16365;51.598;7.668;2022-12-24T00:28:10;29.92;;;5.53;;
29382;SDS011;16365;51.598;7.668;2022-12-24T00:30:38;23.92;;;4.55;;
29382;SDS011;16365;51.598;7.668;2022-12-24T00:33:05;20.52;;;4.38;;
29382;SDS011;16365;51.598;7.668;2022-12-24T00:35:35;22.42;;;4.50;;
29382;SDS011;16365;51.598;7.668;2022-12-24T00:38:03;23.30;;;4.60;;
29382;SDS011;16365;51.598;7.668;2022-12-24T00:40:29;23.27;;;4.28;;
29382;SDS011;16365;51.598;7.668;2022-12-24T00:42:57;26.40;;;5.55;;
29382;SDS011;16365;51.598;7.668;2022-12-24T00:45:23;20.50;;;4.18;;
29382;SDS011;16365;51.598;7.668;2022-12-24T00:47:52;27.85;;;4.65;;
29382;SDS011;16365;51.598;7.668;2022-12-24T00:50:18;22.98;;;4.18;;
29382;SDS011;16365;51.598;7.668;2022-12-24T00:52:45;30.48;;;5.75;;
29382;SDS011;16365;51.598;7.668;2022-12-24T00:55:11;25.83;;;5.70;;
29382;SDS011;16365;51.598;7.668;2022-12-24T00:57:37;25.25;;;5.65;;
29382;SDS011;16365;51.598;7.668;2022-12-24T01:00:04;31.38;;;5.95;;
29382;SDS011;16365;51.598;7.668;2022-12-24T01:02:31;27.35;;;6.45;;
29382;SDS011;16365;51.598;7.668;2022-12-24T01:04:58;38.97;;;7.18;;
29382;SDS011;16365;51.598;7.668;2022-12-24T01:10:09;27.10;;;6.30;;
29382;SDS011;16365;51.598;7.668;2022-12-24T01:12:37;24.48;;;5.40;;
29382;SDS011;16365;51.598;7.668;2022-12-24T01:15:04;36.42;;;6.20;;
29382;SDS011;16365;51.598;7.668;2022-12-24T01:17:31;31.02;;;5.97;;
29382;SDS011;16365;51.598;7.668;2022-12-24T01:19:58;28.52;;;5.72;;
29382;SDS011;16365;51.598;7.668;2022-12-24T01:22:25;29.90;;;6.63;;
29382;SDS011;16365;51.598;7.668;2022-12-24T01:24:51;29.20;;;5.63;;
29382;SDS011;16365;51.598;7.668;2022-12-24T01:27:18;25.70;;;5.13;;
29382;SDS011;16365;51.598;7.668;2022-12-24T01:29:45;31.98;;;5.45;;
29382;SDS011;16365;51.598;7.668;2022-12-24T01:32:12;27.67;;;6.18;;
29382;SDS011;16365;51.598;7.668;2022-12-24T01:34:38;27.92;;;5.45;;
29382;SDS011;16365;51.598;7.668;2022-12-24T01:37:05;30.90;;;5.85;;
29382;SDS011;16365;51.598;7.668;2022-12-24T01:39:31;33.42;;;5.68;;
29382;SDS011;16365;51.598;7.668;2022-12-24T01:41:57;28.17;;;5.28;;
29382;SDS011;16365;51.598;7.668;2022-12-24T01:44:43;32.33;;;6.50;;
29382;SDS011;16365;51.598;7.668;2022-12-24T01:47:14;34.67;;;6.18;;
29382;SDS011;16365;51.598;7.668;2022-12-24T01:49:54;29.75;;;5.65;;
29382;SDS011;16365;51.598;7.668;2022-12-24T01:52:27;35.05;;;5.65;;
29382;SDS011;16365;51.598;7.668;2022-12-24T01:54:57;30.52;;;5.45;;
29382;SDS011;16365;51.598;7.668;2022-12-24T01:57:39;29.23;;;5.85;;
29382;SDS011;16365;51.598;7.668;2022-12-24T02:00:12;28.00;;;5.50;;
29382;SDS011;16365;51.598;7.668;2022-12-24T02:05:54;26.30;;;5.10;;
29382;SDS011;16365;51.598;7.668;2022-12-24T02:08:02;29.30;;;5.45;;
29382;SDS011;16365;51.598;7.668;2022-12-24T02:10:30;35.30;;;5.55;;
29382;SDS011;16365;51.598;7.668;2022-12-24T02:12:57;35.90;;;5.72;;
29382;SDS011;16365;51.598;7.668;2022-12-24T02:15:24;37.67;;;6.18;;
29382;SDS011;16365;51.598;7.668;2022-12-24T02:18:10;34.60;;;6.13;;
29382;SDS011;16365;51.598;7.668;2022-12-24T02:23:27;37.35;;;5.75;;
29382;SDS011;16365;51.598;7.668;2022-12-24T02:31:38;31.67;;;5.28;;
29382;SDS011;16365;51.598;7.668;2022-12-24T02:34:29;37.42;;;7.05;;
29382;SDS011;16365;51.598;7.668;2022-12-24T02:37:07;22.10;;;4.63;;
29382;SDS011;16365;51.598;7.668;2022-12-24T02:39:41;32.95;;;5.40;;
29382;SDS011;16365;51.598;7.668;2022-12-24T02:42:07;30.38;;;6.30;;
29382;SDS011;16365;51.598;7.668;2022-12-24T02:44:40;36.65;;;6.32;;
29382;SDS011;16365;51.598;7.668;2022-12-24T02:47:11;36.00;;;6.10;;
29382;SDS011;16365;51.598;7.668;2022-12-24T02:54:55;36.25;;;5.95;;
29382;SDS011;16365;51.598;7.668;2022-12-24T03:00:20;32.28;;;6.43;;
29382;SDS011;16365;51.598;7.668;2022-12-24T03:02:52;37.80;;;6.32;;
29382;SDS011;16365;51.598;7.668;2022-12-24T03:11:14;29.50;;;5.57;;
29382;SDS011;16365;51.598;7.668;2022-12-24T03:13:42;44.13;;;6.85;;
29382;SDS011;16365;51.598;7.668;2022-12-24T03:16:09;35.47;;;6.90;;
29382;SDS011;16365;51.598;7.668;2022-12-24T03:18:42;34.85;;;6.85;;
29382;SDS011;16365;51.598;7.668;2022-12-24T03:21:12;42.58;;;6.53;;
29382;SDS011;16365;51.598;7.668;2022-12-24T03:23:45;29.83;;;5.05;;
29382;SDS011;16365;51.598;7.668;2022-12-24T03:26:15;28.50;;;5.88;;
29382;SDS011;16365;51.598;7.668;2022-12-24T03:28:43;33.08;;;5.53;;
29382;SDS011;16365;51.598;7.668;2022-12-24T03:31:11;32.17;;;6.82;;
29382;SDS011;16365;51.598;7.668;2022-12-24T03:33:38;41.08;;;6.55;;
29382;SDS011;16365;51.598;7.668;2022-12-24T03:36:05;43.83;;;6.65;;
29382;SDS011;16365;51.598;7.668;2022-12-24T03:38:32;40.97;;;6.10;;
29382;SDS011;16365;51.598;7.668;2022-12-24T03:40:59;32.40;;;6.38;;
29382;SDS011;16365;51.598;7.668;2022-12-24T03:43:25;35.42;;;7.28;;
29382;SDS011;16365;51.598;7.668;2022-12-24T03:45:52;34.67;;;6.63;;
29382;SDS011;16365;51.598;7.668;2022-12-24T03:48:18;34.40;;;6.80;;
29382;SDS011;16365;51.598;7.668;2022-12-24T03:50:45;38.13;;;6.57;;
29382;SDS011;16365;51.598;7.668;2022-12-24T03:53:11;33.97;;;6.63;;
29382;SDS011;16365;51.598;7.668;2022-12-24T03:55:38;36.75;;;6.50;;
29382;SDS011;16365;51.598;7.668;2022-12-24T03:58:05;31.67;;;5.25;;
29382;SDS011;16365;51.598;7.668;2022-12-24T04:00:31;35.92;;;6.50;;
29382;SDS011;16365;51.598;7.668;2022-12-24T04:02:58;35.72;;;6.25;;
29382;SDS011;16365;51.598;7.668;2022-12-24T04:05:24;38.28;;;5.72;;
29382;SDS011;16365;51.598;7.668;2022-12-24T04:07:51;31.65;;;5.93;;
29382;SDS011;16365;51.598;7.668;2022-12-24T04:10:17;35.80;;;6.25;;
29382;SDS011;16365;51.598;7.668;2022-12-24T04:12:44;43.10;;;7.00;;
29382;SDS011;16365;51.598;7.668;2022-12-24T04:15:10;37.05;;;6.78;;
29382;SDS011;16365;51.598;7.668;2022-12-24T04:17:37;27.35;;;6.00;;
29382;SDS011;16365;51.598;7.668;2022-12-24T04:20:04;28.80;;;5.93;;
29382;SDS011;16365;51.598;7.668;2022-12-24T04:22:31;27.30;;;5.28;;
29382;SDS011;16365;51.598;7.668;2022-12-24T04:24:57;35.70;;;5.43;;
29382;SDS011;16365;51.598;7.668;2022-12-24T04:27:24;30.52;;;6.93;;
29382;SDS011;16365;51.598;7.668;2022-12-24T04:29:56;43.40;;;7.18;;
29382;SDS011;16365;51.598;7.668;2022-12-24T04:32:23;34.28;;;5.97;;
29382;SDS011;16365;51.598;7.668;2022-12-24T04:34:51;33.08;;;6.10;;
29382;SDS011;16365;51.598;7.668;2022-12-24T04:37:17;33.17;;;6.07;;
29382;SDS011;16365;51.598;7.668;2022-12-24T04:39:44;34.83;;;5.97;;
29382;SDS011;16365;51.598;7.668;2022-12-24T04:42:10;35.13;;;5.80;;
29382;SDS011;16365;51.598;7.668;2022-12-24T04:44:36;35.58;;;6.45;;
29382;SDS011;16365;51.598;7.668;2022-12-24T04:47:03;37.17;;;6.95;;
29382;SDS011;16365;51.598;7.668;2022-12-24T04:49:29;25.67;;;4.85;;
29382;SDS011;16365;51.598;7.668;2022-12-24T04:51:55;29.27;;;5.95;;
29382;SDS011;16365;51.598;7.668;2022-12-24T04:54:22;34.58;;;5.68;;
29382;SDS011;16365;51.598;7.668;2022-12-24T04:56:48;37.88;;;6.53;;
29382;SDS011;16365;51.598;7.668;2022-12-24T04:59:15;31.80;;;5.38;;
29382;SDS011;16365;51.598;7.668;2022-12-24T05:01:41;25.20;;;4.45;;
29382;SDS011;16365;51.598;7.668;2022-12-24T05:04:08;33.50;;;4.53;;
29382;SDS011;16365;51.598;7.668;2022-12-24T05:06:36;37.43;;;4.90;;
29382;SDS011;16365;51.598;7.668;2022-12-24T05:09:02;34.50;;;4.72;;
29382;SDS011;16365;51.598;7.668;2022-12-24T05:11:29;31.63;;;5.32;;
29382;SDS011;16365;51.598;7.668;2022-12-24T05:13:55;33.65;;;6.00;;
29382;SDS011;16365;51.598;7.668;2022-12-24T05:16:22;29.92;;;5.40;;
29382;SDS011;16365;51.598;7.668;2022-12-24T05:18:50;27.73;;;5.28;;
29382;SDS011;16365;51.598;7.668;2022-12-24T05:21:18;29.08;;;4.97;;
29382;SDS011;16365;51.598;7.668;2022-12-24T05:23:47;23.70;;;5.60;;
29382;SDS011;16365;51.598;7.668;2022-12-24T05:26:34;28.17;;;4.68;;
29382;SDS011;16365;51.598;7.668;2022-12-24T05:29:05;32.78;;;5.57;;
29382;SDS011;16365;51.598;7.668;2022-12-24T05:31:32;28.00;;;4.88;;
29382;SDS011;16365;51.598;7.668;2022-12-24T05:33:59;31.85;;;7.00;;
29382;SDS011;16365;51.598;7.668;2022-12-24T05:36:27;37.13;;;6.18;;
29382;SDS011;16365;51.598;7.668;2022-12-24T05:38:53;22.40;;;4.40;;
29382;SDS011;16365;51.598;7.668;2022-12-24T05:41:20;25.52;;;5.40;;
29382;SDS011;16365;51.598;7.668;2022-12-24T05:43:46;24.60;;;4.90;;
29382;SDS011;16365;51.598;7.668;2022-12-24T05:46:13;30.90;;;5.80;;
29382;SDS011;16365;51.598;7.668;2022-12-24T05:48:44;30.63;;;5.47;;
29382;SDS011;16365;51.598;7.668;2022-12-24T05:51:12;22.70;;;5.45;;
29382;SDS011;16365;51.598;7.668;2022-12-24T05:53:39;28.90;;;5.32;;
29382;SDS011;16365;51.598;7.668;2022-12-24T05:56:08;29.75;;;5.68;;
29382;SDS011;16365;51.598;7.668;2022-12-24T05:58:36;22.67;;;5.10;;
29382;SDS011;16365;51.598;7.668;2022-12-24T06:01:03;22.65;;;5.03;;
29382;SDS011;16365;51.598;7.668;2022-12-24T06:03:31;20.77;;;5.53;;
29382;SDS011;16365;51.598;7.668;2022-12-24T06:05:59;22.25;;;5.60;;
29382;SDS011;16365;51.598;7.668;2022-12-24T06:08:31;21.95;;;5.57;;
29382;SDS011;16365;51.598;7.668;2022-12-24T06:10:59;21.08;;;4.82;;
29382;SDS011;16365;51.598;7.668;2022-12-24T06:13:27;18.13;;;4.82;;
29382;SDS011;16365;51.598;7.668;2022-12-24T06:15:54;26.67;;;6.50;;
29382;SDS011;16365;51.598;7.668;2022-12-24T06:18:25;18.52;;;4.13;;
29382;SDS011;16365;51.598;7.668;2022-12-24T06:20:52;23.20;;;5.47;;
29382;SDS011;16365;51.598;7.668;2022-12-24T06:25:47;22.02;;;4.75;;
29382;SDS011;16365;51.598;7.668;2022-12-24T06:28:14;23.08;;;5.32;;
29382;SDS011;16365;51.598;7.668;2022-12-24T06:30:41;29.58;;;5.50;;
29382;SDS011;16365;51.598;7.668;2022-12-24T06:33:11;22.63;;;4.78;;
29382;SDS011;16365;51.598;7.668;2022-12-24T06:35:38;21.30;;;5.50;;
29382;SDS011;16365;51.598;7.668;2022-12-24T06:38:04;28.17;;;5.95;;
29382;SDS011;16365;51.598;7.668;2022-12-24T06:40:31;28.45;;;5.68;;
29382;SDS011;16365;51.598;7.668;2022-12-24T06:42:57;24.63;;;6.38;;
29382;SDS011;16365;51.598;7.668;2022-12-24T06:45:24;25.27;;;5.40;;
29382;SDS011;16365;51.598;7.668;2022-12-24T06:47:50;21.05;;;5.55;;
29382;SDS011;16365;51.598;7.668;2022-12-24T06:50:17;29.88;;;6.38;;
29382;SDS011;16365;51.598;7.668;2022-12-24T06:52:43;22.40;;;5.53;;
29382;SDS011;16365;51.598;7.668;2022-12-24T06:55:10;28.50;;;6.40;;
29382;SDS011;16365;51.598;7.668;2022-12-24T06:57:37;25.58;;;5.88;;
29382;SDS011;16365;51.598;7.668;2022-12-24T07:00:03;32.75;;;6.28;;
29382;SDS011;16365;51.598;7.668;2022-12-24T07:02:31;28.10;;;5.43;;
29382;SDS011;16365;51.598;7.668;2022-12-24T07:04:58;29.23;;;5.95;;
29382;SDS011;16365;51.598;7.668;2022-12-24T07:07:24;25.98;;;6.03;;
29382;SDS011;16365;51.598;7.668;2022-12-24T07:09:50;24.33;;;5.97;;
29382;SDS011;16365;51.598;7.668;2022-12-24T07:12:17;26.00;;;5.88;;
29382;SDS011;16365;51.598;7.668;2022-12-24T07:14:43;23.55;;;5.68;;
29382;SDS011;16365;51.598;7.668;2022-12-24T07:17:10;26.45;;;7.43;;
29382;SDS011;16365;51.598;7.668;2022-12-24T07:19:37;35.58;;;7.82;;
29382;SDS011;16365;51.598;7.668;2022-12-24T07:22:03;22.60;;;5.10;;
29382;SDS011;16365;51.598;7.668;2022-12-24T07:24:36;22.42;;;6.18;;
29382;SDS011;16365;51.598;7.668;2022-12-24T07:27:03;21.83;;;5.07;;
29382;SDS011;16365;51.598;7.668;2022-12-24T07:29:29;20.77;;;5.50;;
29382;SDS011;16365;51.598;7.668;2022-12-24T07:31:56;26.90;;;7.15;;
29382;SDS011;16365;51.598;7.668;2022-12-24T07:34:23;28.42;;;6.13;;
29382;SDS011;16365;51.598;7.668;2022-12-24T07:36:49;27.50;;;5.15;;
29382;SDS011;16365;51.598;7.668;2022-12-24T07:39:15;25.30;;;5.03;;
29382;SDS011;16365;51.598;7.668;2022-12-24T07:41:42;23.30;;;5.20;;
29382;SDS011;16365;51.598;7.668;2022-12-24T07:44:12;34.83;;;6.22;;
29382;SDS011;16365;51.598;7.668;2022-12-24T07:46:39;23.90;;;6.03;;
29382;SDS011;16365;51.598;7.668;2022-12-24T07:49:06;33.08;;;6.15;;
29382;SDS011;16365;51.598;7.668;2022-12-24T07:51:33;26.35;;;5.72;;
29382;SDS011;16365;51.598;7.668;2022-12-24T07:53:59;26.63;;;6.40;;
29382;SDS011;16365;51.598;7.668;2022-12-24T07:56:25;34.83;;;5.28;;
29382;SDS011;16365;51.598;7.668;2022-12-24T07:58:52;25.60;;;4.80;;
29382;SDS011;16365;51.598;7.668;2022-12-24T08:01:19;31.30;;;6.03;;
29382;SDS011;16365;51.598;7.668;2022-12-24T08:03:45;27.85;;;5.97;;
29382;SDS011;16365;51.598;7.668;2022-12-24T08:06:12;31.65;;;4.95;;
29382;SDS011;16365;51.598;7.668;2022-12-24T08:08:39;24.25;;;4.72;;
29382;SDS011;16365;51.598;7.668;2022-12-24T08:11:05;22.65;;;5.28;;
29382;SDS011;16365;51.598;7.668;2022-12-24T08:13:32;23.08;;;5.30;;
29382;SDS011;16365;51.598;7.668;2022-12-24T08:15:59;23.23;;;4.95;;
29382;SDS011;16365;51.598;7.668;2022-12-24T08:18:25;29.08;;;5.93;;
29382;SDS011;16365;51.598;7.668;2022-12-24T08:20:52;34.00;;;6.28;;
29382;SDS011;16365;51.598;7.668;2022-12-24T08:23:18;26.98;;;5.70;;
29382;SDS011;16365;51.598;7.668;2022-12-24T08:25:46;35.05;;;5.53;;
29382;SDS011;16365;51.598;7.668;2022-12-24T08:28:14;23.10;;;5.38;;
29382;SDS011;16365;51.598;7.668;2022-12-24T08:33:09;28.08;;;5.60;;
29382;SDS011;16365;51.598;7.668;2022-12-24T08:35:36;23.83;;;6.65;;
29382;SDS011;16365;51.598;7.668;2022-12-24T08:38:02;23.98;;;5.28;;
29382;SDS011;16365;51.598;7.668;2022-12-24T08:40:28;26.08;;;6.20;;
29382;SDS011;16365;51.598;7.668;2022-12-24T08:42:55;28.17;;;6.45;;
29382;SDS011;16365;51.598;7.668;2022-12-24T08:45:21;28.80;;;6.45;;
29382;SDS011;16365;51.598;7.668;2022-12-24T08:47:48;26.75;;;6.03;;
29382;SDS011;16365;51.598;7.668;2022-12-24T08:50:14;34.40;;;6.57;;
29382;SDS011;16365;51.598;7.668;2022-12-24T08:52:41;28.33;;;7.10;;
29382;SDS011;16365;51.598;7.668;2022-12-24T08:55:07;34.45;;;7.38;;
29382;SDS011;16365;51.598;7.668;2022-12-24T08:57:35;28.25;;;6.82;;
29382;SDS011;16365;51.598;7.668;2022-12-24T09:00:04;28.73;;;6.45;;
29382;SDS011;16365;51.598;7.668;2022-12-24T09:02:31;35.70;;;6.50;;
29382;SDS011;16365;51.598;7.668;2022-12-24T09:04:58;25.23;;;5.68;;
29382;SDS011;16365;51.598;7.668;2022-12-24T09:07:24;34.42;;;5.82;;
29382;SDS011;16365;51.598;7.668;2022-12-24T09:09:50;30.38;;;6.03;;
29382;SDS011;16365;51.598;7.668;2022-12-24T09:12:17;31.48;;;6.32;;
29382;SDS011;16365;51.598;7.668;2022-12-24T09:14:43;33.28;;;5.68;;
29382;SDS011;16365;51.598;7.668;2022-12-24T09:17:10;32.17;;;5.85;;
29382;SDS011;16365;51.598;7.668;2022-12-24T09:19:36;28.30;;;5.78;;
29382;SDS011;16365;51.598;7.668;2022-12-24T09:22:04;25.53;;;5.37;;
29382;SDS011;16365;51.598;7.668;2022-12-24T09:24:30;32.97;;;5.70;;
29382;SDS011;16365;51.598;7.668;2022-12-24T09:26:57;31.35;;;6.30;;
29382;SDS011;16365;51.598;7.668;2022-12-24T09:29:24;38.03;;;6.22;;
29382;SDS011;16365;51.598;7.668;2022-12-24T09:31:50;26.73;;;4.85;;
29382;SDS011;16365;51.598;7.668;2022-12-24T09:34:17;35.17;;;8.05;;
29382;SDS011;16365;51.598;7.668;2022-12-24T09:36:43;31.95;;;5.32;;
29382;SDS011;16365;51.598;7.668;2022-12-24T09:39:11;31.77;;;5.97;;
29382;SDS011;16365;51.598;7.668;2022-12-24T09:41:44;24.33;;;4.45;;
29382;SDS011;16365;51.598;7.668;2022-12-24T09:47:50;26.10;;;6.07;;
29382;SDS011;16365;51.598;7.668;2022-12-24T09:50:23;29.52;;;4.88;;
29382;SDS011;16365;51.598;7.668;2022-12-24T09:52:57;38.85;;;6.18;;
29382;SDS011;16365;51.598;7.668;2022-12-24T09:55:30;28.05;;;5.72;;
29382;SDS011;16365;51.598;7.668;2022-12-24T09:58:00;32.47;;;5.15;;
29382;SDS011;16365;51.598;7.668;2022-12-24T10:00:31;31.63;;;6.43;;
29382;SDS011;16365;51.598;7.668;2022-12-24T10:03:00;27.30;;;5.53;;
29382;SDS011;16365;51.598;7.668;2022-12-24T10:06:17;31.58;;;6.25;;
29382;SDS011;16365;51.598;7.668;2022-12-24T10:14:26;33.13;;;6.60;;
29382;SDS011;16365;51.598;7.668;2022-12-24T10:20:06;49.97;;;7.32;;
29382;SDS011;16365;51.598;7.668;2022-12-24T10:28:17;34.85;;;6.82;;
29382;SDS011;16365;51.598;7.668;2022-12-24T10:30:48;42.00;;;8.60;;
29382;SDS011;16365;51.598;7.668;2022-12-24T10:33:32;35.25;;;6.68;;
29382;SDS011;16365;51.598;7.668;2022-12-24T10:36:03;32.88;;;7.38;;
29382;SDS011;16365;51.598;7.668;2022-12-24T10:38:37;35.28;;;6.50;;
29382;SDS011;16365;51.598;7.668;2022-12-24T10:41:04;33.45;;;6.15;;
29382;SDS011;16365;51.598;7.668;2022-12-24T10:43:31;33.00;;;6.45;;
29382;SDS011;16365;51.598;7.668;2022-12-24T10:46:00;30.30;;;6.32;;
29382;SDS011;16365;51.598;7.668;2022-12-24T10:51:12;29.40;;;6.60;;
29382;SDS011;16365;51.598;7.668;2022-12-24T10:53:58;41.63;;;6.53;;
29382;SDS011;16365;51.598;7.668;2022-12-24T10:56:31;28.90;;;6.25;;
29382;SDS011;16365;51.598;7.668;2022-12-24T10:59:21;31.90;;;6.05;;
29382;SDS011;16365;51.598;7.668;2022-12-24T11:01:55;31.58;;;5.97;;
29382;SDS011;16365;51.598;7.668;2022-12-24T11:04:25;36.05;;;5.80;;
29382;SDS011;16365;51.598;7.668;2022-12-24T11:07:02;25.77;;;5.18;;
29382;SDS011;16365;51.598;7.668;2022-12-24T11:09:39;31.05;;;6.60;;
29382;SDS011;16365;51.598;7.668;2022-12-24T11:12:14;33.78;;;6.03;;
29382;SDS011;16365;51.598;7.668;2022-12-24T11:14:44;26.40;;;6.28;;
29382;SDS011;16365;51.598;7.668;2022-12-24T11:17:20;26.55;;;5.50;;
29382;SDS011;16365;51.598;7.668;2022-12-24T11:19:48;23.10;;;5.80;;
29382;SDS011;16365;51.598;7.668;2022-12-24T11:22:18;27.55;;;5.78;;
29382;SDS011;16365;51.598;7.668;2022-12-24T11:24:59;33.67;;;5.90;;
29382;SDS011;16365;51.598;7.668;2022-12-24T11:27:47;30.73;;;6.20;;
29382;SDS011;16365;51.598;7.668;2022-12-24T11:40:32;32.17;;;6.63;;
29382;SDS011;16365;51.598;7.668;2022-12-24T11:43:02;31.45;;;6.40;;
29382;SDS011;16365;51.598;7.668;2022-12-24T11:45:39;32.55;;;5.80;;
29382;SDS011;16365;51.598;7.668;2022-12-24T11:50:57;31.23;;;5.73;;
29382;SDS011;16365;51.598;7.668;2022-12-24T11:53:34;35.05;;;6.50;;
29382;SDS011;16365;51.598;7.668;2022-12-24T11:56:14;26.80;;;6.45;;
29382;SDS011;16365;51.598;7.668;2022-12-24T11:58:53;27.15;;;5.55;;
29382;SDS011;16365;51.598;7.668;2022-12-24T12:06:54;32.88;;;6.00;;
29382;SDS011;16365;51.598;7.668;2022-12-24T12:09:34;32.95;;;6.68;;
29382;SDS011;16365;51.598;7.668;2022-12-24T12:12:08;30.92;;;6.85;;
29382;SDS011;16365;51.598;7.668;2022-12-24T12:14:38;29.10;;;6.32;;
29382;SDS011;16365;51.598;7.668;2022-12-24T12:22:45;36.60;;;7.53;;
29382;SDS011;16365;51.598;7.668;2022-12-24T12:30:59;29.27;;;6.22;;
29382;SDS011;16365;51.598;7.668;2022-12-24T12:33:46;34.85;;;6.22;;
29382;SDS011;16365;51.598;7.668;2022-12-24T12:36:17;26.90;;;6.32;;
29382;SDS011;16365;51.598;7.668;2022-12-24T12:38:48;34.67;;;7.10;;
29382;SDS011;16365;51.598;7.668;2022-12-24T12:44:07;35.28;;;6.40;;
29382;SDS011;16365;51.598;7.668;2022-12-24T12:46:58;22.45;;;5.93;;
29382;SDS011;16365;51.598;7.668;2022-12-24T12:49:42;30.77;;;6.65;;
29382;SDS011;16365;51.598;7.668;2022-12-24T12:55:22;25.92;;;5.65;;
29382;SDS011;16365;51.598;7.668;2022-12-24T13:00:51;35.08;;;7.40;;
29382;SDS011;16365;51.598;7.668;2022-12-24T13:03:27;27.70;;;6.60;;
29382;SDS011;16365;51.598;7.668;2022-12-24T13:11:56;25.95;;;7.05;;
29382;SDS011;16365;51.598;7.668;2022-12-24T13:17:33;37.25;;;7.15;;
29382;SDS011;16365;51.598;7.668;2022-12-24T13:22:49;30.80;;;6.53;;
29382;SDS011;16365;51.598;7.668;2022-12-24T13:25:25;28.92;;;7.18;;
29382;SDS011;16365;51.598;7.668;2022-12-24T13:27:56;28.38;;;6.80;;
29382;SDS011;16365;51.598;7.668;2022-12-24T13:30:50;34.88;;;6.45;;
29382;SDS011;16365;51.598;7.668;2022-12-24T13:34:01;33.28;;;7.28;;
29382;SDS011;16365;51.598;7.668;2022-12-24T13:36:09;28.55;;;6.30;;
29382;SDS011;16365;51.598;7.668;2022-12-24T13:38:40;29.75;;;6.88;;
29382;SDS011;16365;51.598;7.668;2022-12-24T13:46:48;31.58;;;6.18;;
29382;SDS011;16365;51.598;7.668;2022-12-24T13:49:44;29.25;;;6.25;;
29382;SDS011;16365;51.598;7.668;2022-12-24T13:52:15;25.30;;;6.07;;
29382;SDS011;16365;51.598;7.668;2022-12-24T13:54:46;30.75;;;7.22;;
29382;SDS011;16365;51.598;7.668;2022-12-24T13:57:22;31.75;;;6.93;;
29382;SDS011;16365;51.598;7.668;2022-12-24T13:59:58;22.92;;;5.80;;
29382;SDS011;16365;51.598;7.668;2022-12-24T14:02:30;28.77;;;6.30;;
29382;SDS011;16365;51.598;7.668;2022-12-24T14:05:01;29.52;;;5.25;;
29382;SDS011;16365;51.598;7.668;2022-12-24T14:07:34;28.63;;;6.15;;
29382;SDS011;16365;51.598;7.668;2022-12-24T14:10:02;25.08;;;4.80;;
29382;SDS011;16365;51.598;7.668;2022-12-24T14:18:26;27.73;;;5.75;;
29382;SDS011;16365;51.598;7.668;2022-12-24T14:20:55;22.80;;;4.93;;
29382;SDS011;16365;51.598;7.668;2022-12-24T14:23:27;25.10;;;5.72;;
29382;SDS011;16365;51.598;7.668;2022-12-24T14:26:00;30.63;;;6.15;;
29382;SDS011;16365;51.598;7.668;2022-12-24T14:28:32;30.33;;;5.30;;
29382;SDS011;16365;51.598;7.668;2022-12-24T14:31:02;32.63;;;5.35;;
29382;SDS011;16365;51.598;7.668;2022-12-24T14:33:32;26.77;;;6.03;;
29382;SDS011;16365;51.598;7.668;2022-12-24T14:36:00;28.40;;;5.68;;
29382;SDS011;16365;51.598;7.668;2022-12-24T14:38:28;23.73;;;5.88;;
29382;SDS011;16365;51.598;7.668;2022-12-24T14:46:28;27.90;;;6.75;;
29382;SDS011;16365;51.598;7.668;2022-12-24T14:49:06;28.90;;;6.35;;
29382;SDS011;16365;51.598;7.668;2022-12-24T14:51:47;26.38;;;5.85;;
29382;SDS011;16365;51.598;7.668;2022-12-24T14:54:38;24.85;;;5.65;;
29382;SDS011;16365;51.598;7.668;2022-12-24T15:02:27;24.08;;;5.82;;
29382;SDS011;16365;51.598;7.668;2022-12-24T15:05:03;31.20;;;5.57;;
29382;SDS011;16365;51.598;7.668;2022-12-24T15:07:32;24.48;;;6.07;;
29382;SDS011;16365;51.598;7.668;2022-12-24T15:10:01;20.77;;;5.78;;
29382;SDS011;16365;51.598;7.668;2022-12-24T15:12:29;22.10;;;5.82;;
29382;SDS011;16365;51.598;7.668;2022-12-24T15:14:56;24.15;;;6.45;;
29382;SDS011;16365;51.598;7.668;2022-12-24T15:17:24;27.90;;;5.35;;
29382;SDS011;16365;51.598;7.668;2022-12-24T15:19:52;28.77;;;5.82;;
29382;SDS011;16365;51.598;7.668;2022-12-24T15:22:23;23.73;;;6.10;;
29382;SDS011;16365;51.598;7.668;2022-12-24T15:24:53;32.97;;;5.97;;
29382;SDS011;16365;51.598;7.668;2022-12-24T15:27:20;22.05;;;6.10;;
29382;SDS011;16365;51.598;7.668;2022-12-24T15:29:51;28.27;;;5.82;;
29382;SDS011;16365;51.598;7.668;2022-12-24T15:32:21;30.58;;;6.65;;
29382;SDS011;16365;51.598;7.668;2022-12-24T15:34:49;27.65;;;6.75;;
29382;SDS011;16365;51.598;7.668;2022-12-24T15:37:28;24.17;;;6.15;;
29382;SDS011;16365;51.598;7.668;2022-12-24T15:42:30;21.98;;;6.60;;
29382;SDS011;16365;51.598;7.668;2022-12-24T15:44:58;28.95;;;7.20;;
29382;SDS011;16365;51.598;7.668;2022-12-24T15:47:38;34.30;;;7.65;;
29382;SDS011;16365;51.598;7.668;2022-12-24T15:50:14;36.08;;;8.85;;
29382;SDS011;16365;51.598;7.668;2022-12-24T15:52:43;28.17;;;8.43;;
29382;SDS011;16365;51.598;7.668;2022-12-24T15:55:24;27.75;;;9.57;;
29382;SDS011;16365;51.598;7.668;2022-12-24T15:57:50;31.35;;;12.02;;
29382;SDS011;16365;51.598;7.668;2022-12-24T16:00:21;33.38;;;12.63;;
29382;SDS011;16365;51.598;7.668;2022-12-24T16:02:49;40.22;;;13.60;;
29382;SDS011;16365;51.598;7.668;2022-12-24T16:08:01;30.70;;;9.52;;
29382;SDS011;16365;51.598;7.668;2022-12-24T16:10:35;26.70;;;9.43;;
29382;SDS011;16365;51.598;7.668;2022-12-24T16:13:15;27.63;;;8.68;;
29382;SDS011;16365;51.598;7.668;2022-12-24T16:15:50;24.83;;;7.82;;
29382;SDS011;16365;51.598;7.668;2022-12-24T16:18:22;32.20;;;7.68;;
29382;SDS011;16365;51.598;7.668;2022-12-24T16:20:53;29.35;;;6.97;;
29382;SDS011;16365;51.598;7.668;2022-12-24T16:25:51;25.20;;;6.50;;
29382;SDS011;16365;51.598;7.668;2022-12-24T16:28:20;26.35;;;6.68;;
29382;SDS011;16365;51.598;7.668;2022-12-24T16:30:48;26.83;;;6.53;;
29382;SDS011;16365;51.598;7.668;2022-12-24T16:33:15;24.42;;;6.03;;
29382;SDS011;16365;51.598;7.668;2022-12-24T16:35:44;30.58;;;6.43;;
29382;SDS011;16365;51.598;7.668;2022-12-24T16:38:12;28.83;;;6.85;;
29382;SDS011;16365;51.598;7.668;2022-12-24T16:40:39;18.58;;;5.03;;
29382;SDS011;16365;51.598;7.668;2022-12-24T16:43:07;24.83;;;5.97;;
29382;SDS011;16365;51.598;7.668;2022-12-24T16:45:53;27.67;;;6.05;;
29382;SDS011;16365;51.598;7.668;2022-12-24T16:48:25;26.20;;;6.00;;
29382;SDS011;16365;51.598;7.668;2022-12-24T16:50:51;29.63;;;7.40;;
29382;SDS011;16365;51.598;7.668;2022-12-24T16:53:20;34.00;;;7.65;;
29382;SDS011;16365;51.598;7.668;2022-12-24T16:55:47;31.73;;;7.20;;
29382;SDS011;16365;51.598;7.668;2022-12-24T17:00:43;25.38;;;7.93;;
29382;SDS011;16365;51.598;7.668;2022-12-24T17:03:10;24.90;;;6.82;;
29382;SDS011;16365;51.598;7.668;2022-12-24T17:05:39;22.97;;;7.67;;
29382;SDS011;16365;51.598;7.668;2022-12-24T17:08:07;23.38;;;7.65;;